Time;durP1;ratioP1;P1;durP2;ratioP2;P2;SDS_P1;SDS_P2;PMS_P1;PMS_P2;Temp;Humidity;BMP_temperature;BMP_pressure;BME280_temperature;BME280_humidity;BME280_pressure;Samples;Min_cycle;Max_cycle;Signal;HPM_P1;HPM_P2
2023/09/29 00:00:49;;;;;;;16.27;5.80;;;15.60;99.90;;;;;;6275405;22;20086;-47
2023/09/29 00:03:15;;;;;;;15.38;6.57;;;15.50;99.90;;;;;;6275605;22;20505;-47
2023/09/29 00:05:43;;;;;;;17.05;6.22;;;15.60;99.90;;;;;;6275088;22;20169;-48
2023/09/29 00:08:22;;;;;;;15.60;7.25;;;15.60;99.90;;;;;;6275494;22;20012;-48
2023/09/29 00:10:49;;;;;;;14.70;7.60;;;15.60;99.90;;;;;;6274271;22;20087;-51
2023/09/29 00:13:15;;;;;;;15.93;7.03;;;15.70;99.90;;;;;;6244905;22;20370;-48
2023/09/29 00:15:41;;;;;;;15.18;7.00;;;15.70;99.90;;;;;;6273935;22;20035;-48
2023/09/29 00:18:09;;;;;;;15.45;7.20;;;15.80;99.90;;;;;;6276200;22;20027;-48
2023/09/29 00:20:35;;;;;;;14.95;7.97;;;15.80;99.90;;;;;;6273351;22;20018;-48
2023/09/29 00:23:01;;;;;;;17.77;7.80;;;15.90;99.90;;;;;;6273088;22;20557;-48
2023/09/29 00:25:28;;;;;;;16.98;6.95;;;16.00;99.90;;;;;;6274097;22;20015;-49
2023/09/29 00:27:55;;;;;;;17.70;7.60;;;16.00;99.90;;;;;;6239691;22;20020;-49
2023/09/29 00:30:21;;;;;;;17.33;7.80;;;16.00;99.90;;;;;;6242350;22;20516;-48
2023/09/29 00:32:49;;;;;;;15.35;7.38;;;16.10;99.90;;;;;;6241118;23;20051;-49
2023/09/29 00:35:27;;;;;;;16.17;7.13;;;16.00;99.90;;;;;;6243930;22;20096;-48
2023/09/29 00:37:57;;;;;;;14.32;7.25;;;16.20;99.90;;;;;;6244898;22;20008;-48
2023/09/29 00:40:24;;;;;;;14.82;7.07;;;16.00;99.90;;;;;;6244415;22;20012;-47
2023/09/29 00:42:49;;;;;;;18.33;7.07;;;16.00;99.90;;;;;;6245589;22;20074;-47
2023/09/29 00:45:19;;;;;;;12.93;7.00;;;16.00;99.90;;;;;;6242812;23;20460;-47
2023/09/29 00:47:46;;;;;;;13.95;7.00;;;16.00;99.90;;;;;;6244664;23;20008;-48
2023/09/29 00:50:14;;;;;;;18.27;7.50;;;16.10;99.90;;;;;;6244363;22;20119;-49
2023/09/29 00:52:41;;;;;;;15.18;7.85;;;16.10;99.90;;;;;;6242587;23;20725;-49
2023/09/29 00:55:12;;;;;;;14.15;7.22;;;16.10;99.90;;;;;;6243190;22;20031;-49
2023/09/29 00:57:40;;;;;;;15.50;7.60;;;16.10;99.90;;;;;;6244584;22;20074;-50
2023/09/29 01:00:18;;;;;;;12.27;6.85;;;16.00;99.90;;;;;;6244024;22;20012;-48
2023/09/29 01:02:44;;;;;;;16.38;7.80;;;16.00;99.90;;;;;;6243779;22;20022;-47
2023/09/29 01:05:14;;;;;;;13.88;7.45;;;16.00;99.90;;;;;;6244163;23;20424;-48
2023/09/29 01:07:42;;;;;;;15.10;7.60;;;16.00;99.90;;;;;;6242248;23;20448;-51
2023/09/29 01:10:10;;;;;;;15.23;8.02;;;15.90;99.90;;;;;;6242249;23;20439;-50
2023/09/29 01:12:37;;;;;;;17.02;8.40;;;16.00;99.90;;;;;;6241974;23;20020;-48
2023/09/29 01:15:05;;;;;;;16.50;8.48;;;15.90;99.90;;;;;;6244400;22;20019;-49
2023/09/29 01:17:30;;;;;;;;;;;15.90;99.90;;;;;;6244377;22;20020;-51
2023/09/29 01:19:57;;;;;;;17.20;7.88;;;15.90;99.90;;;;;;6243513;23;20014;-48
2023/09/29 01:22:22;;;;;;;16.90;8.27;;;15.90;99.90;;;;;;6243568;22;20024;-48
2023/09/29 01:24:48;;;;;;;18.77;8.77;;;16.00;99.90;;;;;;6242976;23;20012;-48
2023/09/29 01:27:14;;;;;;;17.90;8.45;;;15.90;99.90;;;;;;6242199;22;20501;-48
2023/09/29 01:29:41;;;;;;;17.17;8.27;;;16.00;99.90;;;;;;6243752;22;20020;-49
2023/09/29 01:32:11;;;;;;;16.48;8.10;;;16.00;99.90;;;;;;6242948;22;20032;-50
2023/09/29 01:34:37;;;;;;;17.60;8.85;;;16.00;99.90;;;;;;6240233;23;20012;-48
2023/09/29 01:37:03;;;;;;;19.55;9.10;;;16.00;99.90;;;;;;6244195;23;20016;-51
2023/09/29 01:39:30;;;;;;;14.52;8.80;;;16.00;99.90;;;;;;6240529;23;20440;-51
2023/09/29 01:41:56;;;;;;;17.67;8.88;;;16.00;99.90;;;;;;6242985;22;20016;-47
2023/09/29 01:44:22;;;;;;;23.40;10.35;;;16.00;99.90;;;;;;6244722;22;20521;-49
2023/09/29 01:46:49;;;;;;;17.83;9.30;;;16.00;99.90;;;;;;6244276;22;20043;-50
2023/09/29 01:49:15;;;;;;;17.15;9.38;;;16.10;99.90;;;;;;6243388;22;20097;-48
2023/09/29 01:51:44;;;;;;;19.45;9.60;;;16.10;99.90;;;;;;6244058;22;20506;-48
2023/09/29 01:54:10;;;;;;;19.02;9.65;;;16.20;99.90;;;;;;6243464;22;20024;-49
2023/09/29 01:56:35;;;;;;;19.60;10.40;;;16.00;99.90;;;;;;6244048;22;20088;-51
2023/09/29 01:59:02;;;;;;;15.05;9.27;;;16.00;99.90;;;;;;6243485;22;20024;-49
2023/09/29 02:01:29;;;;;;;17.43;9.93;;;16.00;99.90;;;;;;6242157;22;20012;-48
2023/09/29 02:03:55;;;;;;;20.15;10.15;;;16.00;99.90;;;;;;6243299;22;20027;-48
2023/09/29 02:06:20;;;;;;;17.52;10.07;;;16.00;99.90;;;;;;6244263;22;20012;-49
2023/09/29 02:08:46;;;;;;;20.17;9.18;;;16.00;99.90;;;;;;6243119;22;20340;-48
2023/09/29 02:11:12;;;;;;;16.70;9.43;;;16.00;99.90;;;;;;6243523;23;20022;-48
2023/09/29 02:13:38;;;;;;;16.60;9.73;;;16.00;99.90;;;;;;6243718;22;20012;-49
2023/09/29 02:16:15;;;;;;;17.95;9.80;;;16.10;99.90;;;;;;6243041;22;20061;-48
2023/09/29 02:18:41;;;;;;;19.33;10.45;;;16.20;99.90;;;;;;6244537;22;20016;-48
2023/09/29 02:21:07;;;;;;;15.52;10.52;;;16.30;99.90;;;;;;6243572;22;20016;-49
2023/09/29 02:23:38;;;;;;;19.02;10.45;;;16.20;99.90;;;;;;6243102;22;20019;-50
2023/09/29 02:26:08;;;;;;;21.17;10.68;;;16.30;99.90;;;;;;6245134;22;20027;-48
2023/09/29 02:28:34;;;;;;;26.60;11.50;;;16.20;99.90;;;;;;6242816;22;20022;-48
2023/09/29 02:31:02;;;;;;;19.58;11.15;;;16.10;99.90;;;;;;6244634;22;20012;-47
2023/09/29 02:33:29;;;;;;;15.30;10.40;;;;;;;;;;6244924;22;20066;-48
2023/09/29 02:35:56;;;;;;;19.17;10.43;;;16.00;99.90;;;;;;6242036;22;20024;-48
2023/09/29 02:38:22;;;;;;;17.83;11.82;;;16.10;99.90;;;;;;6244663;22;20082;-47
2023/09/29 02:40:48;;;;;;;22.20;11.55;;;16.10;99.90;;;;;;6244710;22;20012;-48
2023/09/29 02:43:13;;;;;;;21.05;11.45;;;16.10;99.90;;;;;;6244990;22;20313;-48
2023/09/29 02:45:43;;;;;;;18.20;12.35;;;16.10;99.90;;;;;;6246816;22;20059;-50
2023/09/29 02:48:10;;;;;;;17.40;11.25;;;16.10;99.90;;;;;;6242695;22;20074;-50
2023/09/29 02:50:36;;;;;;;18.77;11.98;;;16.10;99.90;;;;;;6244650;23;20453;-48
2023/09/29 02:53:05;;;;;;;20.02;11.77;;;16.10;99.90;;;;;;6244701;22;20018;-48
2023/09/29 02:55:31;;;;;;;22.15;12.48;;;16.10;99.90;;;;;;6242897;23;20020;-50
2023/09/29 02:57:56;;;;;;;18.85;11.57;;;16.20;99.90;;;;;;6245846;22;20062;-50
2023/09/29 03:00:26;;;;;;;16.50;11.48;;;16.20;99.90;;;;;;6243882;22;20058;-50
2023/09/29 03:02:52;;;;;;;18.13;11.52;;;16.20;99.90;;;;;;6245021;22;20020;-50
2023/09/29 03:05:22;;;;;;;16.40;12.52;;;16.20;99.90;;;;;;6245285;22;20467;-48
2023/09/29 03:07:47;;;;;;;20.70;13.07;;;16.20;99.90;;;;;;6244742;22;20040;-49
2023/09/29 03:10:15;;;;;;;17.63;12.27;;;16.20;99.90;;;;;;6245854;22;20085;-49
2023/09/29 03:12:42;;;;;;;19.98;12.38;;;16.30;99.90;;;;;;6245834;22;20051;-51
2023/09/29 03:15:15;;;;;;;18.02;12.98;;;16.30;99.90;;;;;;6243174;23;20019;-48
2023/09/29 03:17:41;;;;;;;19.02;12.75;;;16.30;99.90;;;;;;6246100;22;20020;-50
2023/09/29 03:20:14;;;;;;;22.25;13.48;;;16.30;99.90;;;;;;6245857;22;20018;-48
2023/09/29 03:22:44;;;;;;;18.00;12.15;;;16.40;99.90;;;;;;6245489;22;20097;-48
2023/09/29 03:25:10;;;;;;;19.77;12.90;;;16.30;99.90;;;;;;6243755;23;20016;-51
2023/09/29 03:27:38;;;;;;;25.15;12.90;;;16.40;99.90;;;;;;6259947;22;20012;-50
2023/09/29 03:30:05;;;;;;;18.90;12.55;;;16.40;99.90;;;;;;6274420;22;20065;-48
2023/09/29 03:32:33;;;;;;;19.50;12.73;;;16.40;99.90;;;;;;6248520;22;20471;-47
2023/09/29 03:34:59;;;;;;;20.08;12.60;;;16.40;99.90;;;;;;6274816;22;20015;-47
2023/09/29 03:37:27;;;;;;;17.63;11.75;;;16.40;99.90;;;;;;6275304;22;20073;-49
2023/09/29 03:39:53;;;;;;;18.83;12.77;;;16.50;99.90;;;;;;6222934;22;20049;-51
2023/09/29 03:42:20;;;;;;;16.60;12.43;;;16.50;99.90;;;;;;6276039;22;20012;-49
2023/09/29 03:44:46;;;;;;;18.02;11.52;;;16.50;99.90;;;;;;6277776;22;20320;-49
2023/09/29 03:47:12;;;;;;;17.33;11.75;;;16.50;99.90;;;;;;6274364;22;20507;-49
2023/09/29 03:49:38;;;;;;;19.83;11.82;;;16.50;99.90;;;;;;6276238;22;20130;-51
2023/09/29 03:52:08;;;;;;;16.10;10.88;;;16.50;99.90;;;;;;6275561;22;20023;-47
2023/09/29 03:54:34;;;;;;;16.90;11.25;;;16.60;99.90;;;;;;6274780;22;20019;-48
2023/09/29 03:57:04;;;;;;;19.20;11.52;;;16.50;99.90;;;;;;6275178;22;20015;-48
2023/09/29 03:59:30;;;;;;;14.85;10.75;;;16.60;99.90;;;;;;6275328;22;20022;-48
2023/09/29 04:01:56;;;;;;;16.58;10.65;;;16.60;99.90;;;;;;6273873;22;20034;-50
2023/09/29 04:04:21;;;;;;;17.25;10.07;;;16.60;99.90;;;;;;6275299;22;20829;-51
2023/09/29 04:06:47;;;;;;;17.60;10.90;;;16.60;99.90;;;;;;6275133;22;20016;-47
2023/09/29 04:09:12;;;;;;;16.85;10.57;;;16.60;99.90;;;;;;6276012;22;20376;-49
2023/09/29 04:11:40;;;;;;;14.52;10.15;;;16.60;99.90;;;;;;6275360;22;20043;-48
2023/09/29 04:14:06;;;;;;;19.40;10.68;;;16.70;99.90;;;;;;6275226;22;20070;-49
2023/09/29 04:16:32;;;;;;;12.60;10.23;;;16.70;99.90;;;;;;6275679;22;20034;-47
2023/09/29 04:18:57;;;;;;;17.60;9.88;;;16.70;99.90;;;;;;6276421;22;20087;-49
2023/09/29 04:21:23;;;;;;;15.20;9.43;;;16.70;99.90;;;;;;6275096;22;20098;-48
2023/09/29 04:23:48;;;;;;;12.73;8.52;;;16.70;99.90;;;;;;6276204;22;20026;-49
2023/09/29 04:26:21;;;;;;;16.60;9.20;;;16.80;99.90;;;;;;6275424;22;20086;-49
2023/09/29 04:28:47;;;;;;;15.52;9.13;;;16.80;99.90;;;;;;6275963;22;20487;-48
2023/09/29 04:31:13;;;;;;;12.20;9.27;;;16.90;99.90;;;;;;6275047;22;20027;-50
2023/09/29 04:33:43;;;;;;;12.00;8.30;;;16.90;99.90;;;;;;6275591;22;20019;-48
2023/09/29 04:36:09;;;;;;;14.85;8.52;;;16.90;99.90;;;;;;6275242;22;20016;-49
2023/09/29 04:38:36;;;;;;;13.00;8.05;;;16.90;99.90;;;;;;6275617;22;20091;-49
2023/09/29 04:41:02;;;;;;;12.18;8.07;;;16.90;99.90;;;;;;6275622;22;20015;-49
2023/09/29 04:43:28;;;;;;;10.88;8.50;;;16.80;99.90;;;;;;6276615;22;20011;-50
2023/09/29 04:45:55;;;;;;;12.13;7.97;;;16.80;99.90;;;;;;6249659;22;20556;-51
2023/09/29 04:48:21;;;;;;;11.75;8.27;;;16.90;99.90;;;;;;6275076;22;20011;-48
2023/09/29 04:50:47;;;;;;;11.23;7.70;;;16.80;99.90;;;;;;6275324;22;20015;-47
2023/09/29 04:53:12;;;;;;;12.18;8.65;;;16.90;99.90;;;;;;6272464;22;20039;-48
2023/09/29 04:55:38;;;;;;;11.93;8.30;;;16.80;99.90;;;;;;6272339;22;20016;-51
2023/09/29 04:58:04;;;;;;;12.93;7.82;;;16.90;99.90;;;;;;6273691;22;20074;-50
2023/09/29 05:00:30;;;;;;;13.55;7.75;;;16.90;99.90;;;;;;6274247;22;20427;-47
2023/09/29 05:02:55;;;;;;;12.07;7.47;;;16.90;99.90;;;;;;6274094;22;20437;-47
2023/09/29 05:05:21;;;;;;;9.75;6.93;;;17.00;99.90;;;;;;6275176;22;20131;-49
2023/09/29 05:07:47;;;;;;;11.65;8.07;;;17.00;99.90;;;;;;6275024;22;20502;-47
2023/09/29 05:10:15;;;;;;;11.43;7.70;;;17.00;99.90;;;;;;6275621;22;20027;-48
2023/09/29 05:12:43;;;;;;;14.45;8.13;;;17.00;99.90;;;;;;6275394;22;20012;-49
2023/09/29 05:15:09;;;;;;;;;;;17.00;99.90;;;;;;6275659;22;20026;-48
2023/09/29 05:17:35;;;;;;;11.30;7.28;;;17.00;99.90;;;;;;6274800;22;20006;-48
2023/09/29 05:20:00;;;;;;;12.73;6.97;;;17.00;99.90;;;;;;6275642;22;20028;-47
2023/09/29 05:22:26;;;;;;;13.18;6.60;;;17.00;99.90;;;;;;6275439;22;20043;-48
2023/09/29 05:24:53;;;;;;;10.85;6.72;;;17.10;99.90;;;;;;6275084;22;20137;-48
2023/09/29 05:27:20;;;;;;;9.38;6.70;;;;;;;;;;6275089;22;20039;-51
2023/09/29 05:29:45;;;;;;;11.82;7.00;;;17.00;99.90;;;;;;6274804;22;20016;-48
2023/09/29 05:32:11;;;;;;;10.40;6.75;;;17.00;99.90;;;;;;6274958;22;20058;-51
2023/09/29 05:34:37;;;;;;;10.40;6.38;;;17.00;99.90;;;;;;6275791;22;20018;-47
2023/09/29 05:37:02;;;;;;;10.07;6.30;;;17.00;99.90;;;;;;6275443;22;20043;-51
2023/09/29 05:39:28;;;;;;;11.52;6.50;;;17.00;99.90;;;;;;6248370;22;20019;-48
2023/09/29 05:41:53;;;;;;;13.38;6.65;;;17.10;99.90;;;;;;6275491;22;20012;-47
2023/09/29 05:44:19;;;;;;;9.30;6.13;;;17.10;99.90;;;;;;6277477;22;20012;-48
2023/09/29 05:46:45;;;;;;;11.35;6.38;;;17.10;99.90;;;;;;6275285;22;20026;-48
2023/09/29 05:49:11;;;;;;;8.18;5.78;;;17.10;99.90;;;;;;6274402;22;20015;-48
2023/09/29 05:51:37;;;;;;;8.15;6.07;;;17.10;99.90;;;;;;6274685;22;20020;-48
2023/09/29 05:54:03;;;;;;;10.88;6.13;;;17.10;99.90;;;;;;6275475;22;20019;-48
2023/09/29 05:56:31;;;;;;;9.98;5.80;;;17.00;99.90;;;;;;6247900;22;20353;-48
2023/09/29 05:58:57;;;;;;;13.20;5.88;;;17.00;99.90;;;;;;6274992;22;20337;-50
2023/09/29 06:01:25;;;;;;;9.90;5.57;;;17.00;99.90;;;;;;6273563;22;20062;-51
2023/09/29 06:03:51;;;;;;;;;;;17.10;99.90;;;;;;6275279;22;20348;-50
2023/09/29 06:06:17;;;;;;;9.15;5.38;;;17.00;99.90;;;;;;6272459;22;19922;-50
2023/09/29 06:08:44;;;;;;;9.63;5.35;;;17.10;99.90;;;;;;6273559;22;20440;-48
2023/09/29 06:11:10;;;;;;;8.73;5.32;;;17.10;99.90;;;;;;6273715;22;20392;-48
2023/09/29 06:13:37;;;;;;;7.57;4.72;;;17.10;99.90;;;;;;6275268;22;20098;-51
2023/09/29 06:16:04;;;;;;;9.98;5.20;;;;;;;;;;6274379;22;20455;-48
2023/09/29 06:18:29;;;;;;;8.10;4.45;;;17.20;99.90;;;;;;6246960;22;20012;-48
2023/09/29 06:20:55;;;;;;;6.85;4.13;;;17.20;99.90;;;;;;6272703;22;20098;-48
2023/09/29 06:23:21;;;;;;;6.68;4.20;;;17.20;99.90;;;;;;6272138;22;20016;-48
2023/09/29 06:25:47;;;;;;;5.68;4.10;;;;;;;;;;6246759;22;20382;-48
2023/09/29 06:28:13;;;;;;;9.20;4.28;;;17.30;99.90;;;;;;6274259;22;20090;-51
2023/09/29 06:30:38;;;;;;;7.82;3.80;;;17.40;99.90;;;;;;6272240;22;20482;-51
2023/09/29 06:33:06;;;;;;;9.00;3.85;;;17.40;99.90;;;;;;6270677;22;20014;-49
2023/09/29 06:35:32;;;;;;;7.70;4.50;;;17.50;99.90;;;;;;6275166;22;20434;-50
2023/09/29 06:37:58;;;;;;;7.97;3.75;;;17.50;99.90;;;;;;6272416;22;20012;-50
2023/09/29 06:40:23;;;;;;;7.10;3.83;;;17.60;99.90;;;;;;6274460;22;20012;-48
2023/09/29 06:42:49;;;;;;;6.50;3.70;;;17.60;99.90;;;;;;6247177;22;20020;-47
2023/09/29 06:45:15;;;;;;;6.10;3.70;;;17.70;99.90;;;;;;6276550;22;20018;-50
2023/09/29 06:47:40;;;;;;;7.00;3.75;;;17.70;99.90;;;;;;6270061;22;20339;-49
2023/09/29 06:50:10;;;;;;;7.20;3.80;;;17.70;99.90;;;;;;6270273;22;20093;-48
2023/09/29 06:52:37;;;;;;;6.35;3.95;;;17.70;99.90;;;;;;6273476;22;20027;-47
2023/09/29 06:55:03;;;;;;;7.13;3.75;;;17.70;99.90;;;;;;6272639;22;20054;-48
2023/09/29 06:57:29;;;;;;;24.10;6.50;;;17.80;99.90;;;;;;6274148;22;20011;-48
2023/09/29 06:59:55;;;;;;;24.13;6.95;;;17.80;99.90;;;;;;6273312;22;20459;-49
2023/09/29 07:02:20;;;;;;;23.10;7.88;;;17.80;99.90;;;;;;6271748;22;20019;-48
2023/09/29 07:04:47;;;;;;;5.40;3.28;;;17.80;99.90;;;;;;6273328;22;20008;-48
2023/09/29 07:07:13;;;;;;;9.82;5.20;;;17.80;99.90;;;;;;6274819;22;20035;-48
2023/09/29 07:09:39;;;;;;;6.78;3.90;;;17.80;99.90;;;;;;6245677;22;20090;-49
2023/09/29 07:12:06;;;;;;;6.00;3.75;;;17.80;99.90;;;;;;6275056;22;20047;-48
2023/09/29 07:14:32;;;;;;;6.68;4.25;;;17.90;99.90;;;;;;6272852;22;20454;-48
2023/09/29 07:16:57;;;;;;;5.95;4.07;;;17.90;99.90;;;;;;6274257;22;20019;-51
2023/09/29 07:19:23;;;;;;;5.35;3.47;;;17.90;99.90;;;;;;6275042;22;20107;-49
2023/09/29 07:21:49;;;;;;;5.40;3.30;;;17.90;99.90;;;;;;6276070;22;20036;-49
2023/09/29 07:24:16;;;;;;;5.38;3.35;;;18.00;99.90;;;;;;6277130;22;20546;-51
2023/09/29 07:26:42;;;;;;;7.70;3.55;;;;;;;;;;6277190;22;20077;-49
2023/09/29 07:29:08;;;;;;;9.45;3.88;;;18.10;99.90;;;;;;6288149;22;20027;-52
2023/09/29 07:31:47;;;;;;;5.47;3.40;;;18.20;99.90;;;;;;6307373;22;20018;-48
2023/09/29 07:34:15;;;;;;;6.25;3.92;;;18.30;99.90;;;;;;6308094;22;20015;-50
2023/09/29 07:36:43;;;;;;;9.52;4.10;;;18.30;99.90;;;;;;6280509;22;20026;-49
2023/09/29 07:39:10;;;;;;;5.97;3.53;;;18.30;99.90;;;;;;6309351;22;20011;-51
2023/09/29 07:41:35;;;;;;;7.43;3.70;;;18.30;99.90;;;;;;6308148;22;20015;-50
2023/09/29 07:44:01;;;;;;;5.93;3.85;;;18.30;99.90;;;;;;6308688;22;20014;-50
2023/09/29 07:46:26;;;;;;;8.90;4.10;;;18.30;99.90;;;;;;6308665;22;20015;-50
2023/09/29 07:48:52;;;;;;;6.00;3.58;;;18.30;99.90;;;;;;6311432;22;20076;-51
2023/09/29 07:51:18;;;;;;;8.30;4.35;;;18.40;99.90;;;;;;6308981;22;20019;-50
2023/09/29 07:53:44;;;;;;;6.50;3.35;;;18.40;99.90;;;;;;6307643;22;20447;-50
2023/09/29 07:56:09;;;;;;;6.78;3.90;;;18.40;99.90;;;;;;6308665;22;20023;-49
2023/09/29 07:58:35;;;;;;;6.00;3.38;;;18.50;99.90;;;;;;6307674;22;20007;-49
2023/09/29 08:01:01;;;;;;;6.65;3.70;;;18.50;99.90;;;;;;6279120;22;20065;-51
2023/09/29 08:03:27;;;;;;;6.38;3.45;;;;;;;;;;6307246;22;20398;-49
2023/09/29 08:05:54;;;;;;;6.85;3.63;;;19.00;99.90;;;;;;6307859;22;20015;-49
2023/09/29 08:08:20;;;;;;;4.50;3.33;;;18.90;99.90;;;;;;6307639;22;20019;-49
2023/09/29 08:10:46;;;;;;;4.50;3.28;;;19.20;99.90;;;;;;6307405;22;20026;-49
2023/09/29 08:13:12;;;;;;;6.32;3.47;;;19.20;99.90;;;;;;6279926;22;20436;-51
2023/09/29 08:15:38;;;;;;;5.60;3.45;;;19.30;99.90;;;;;;6307870;22;20034;-52
2023/09/29 08:18:04;;;;;;;4.30;3.25;;;19.60;99.90;;;;;;6307581;22;20451;-49
2023/09/29 08:20:29;;;;;;;5.82;3.40;;;19.50;99.90;;;;;;6307265;22;20388;-49
2023/09/29 08:22:55;;;;;;;5.50;3.30;;;19.70;99.90;;;;;;6306843;22;20466;-49
2023/09/29 08:25:20;;;;;;;5.43;3.25;;;20.00;99.90;;;;;;6308103;22;20011;-52
2023/09/29 08:27:46;;;;;;;4.03;3.33;;;20.10;99.90;;;;;;6307481;22;20022;-50
2023/09/29 08:30:12;;;;;;;4.50;3.15;;;20.20;99.90;;;;;;6307076;22;20016;-51
2023/09/29 08:32:39;;;;;;;7.35;3.17;;;20.40;99.90;;;;;;6307838;22;20018;-49
2023/09/29 08:35:05;;;;;;;7.07;3.20;;;20.50;99.90;;;;;;6307645;22;20012;-51
2023/09/29 08:37:30;;;;;;;4.05;3.30;;;20.50;99.90;;;;;;6306757;22;20716;-49
2023/09/29 08:39:57;;;;;;;5.90;3.38;;;;;;;;;;6307291;22;20016;-49
2023/09/29 08:42:30;;;;;;;5.63;3.25;;;20.70;99.90;;;;;;6306984;22;20068;-49
2023/09/29 08:45:00;;;;;;;4.78;3.40;;;20.60;99.90;;;;;;6308539;22;20041;-53
2023/09/29 08:47:29;;;;;;;6.78;3.38;;;20.70;99.90;;;;;;6309142;22;20023;-49
2023/09/29 08:49:59;;;;;;;5.53;3.13;;;20.90;99.90;;;;;;6310533;22;20096;-49
2023/09/29 08:52:30;;;;;;;5.80;3.13;;;20.90;99.90;;;;;;6307206;22;20068;-49
2023/09/29 08:54:55;;;;;;;6.00;3.22;;;21.10;99.90;;;;;;6306142;22;20019;-53
2023/09/29 08:57:23;;;;;;;7.57;3.45;;;21.20;99.90;;;;;;6307883;22;20041;-49
2023/09/29 08:59:49;;;;;;;;;;;21.30;99.90;;;;;;6308049;22;20019;-51
2023/09/29 09:02:15;;;;;;;3.95;3.10;;;21.40;99.90;;;;;;6306975;22;19981;-49
2023/09/29 09:04:41;;;;;;;5.07;3.08;;;21.40;99.90;;;;;;6304866;22;20387;-50
2023/09/29 09:07:06;;;;;;;6.88;3.95;;;21.30;99.90;;;;;;6306937;22;20015;-49
2023/09/29 09:09:35;;;;;;;6.07;3.30;;;21.30;99.90;;;;;;6306853;22;20427;-49
2023/09/29 09:12:02;;;;;;;6.88;3.30;;;21.30;99.90;;;;;;6305683;22;20042;-49
2023/09/29 09:14:40;;;;;;;4.67;2.80;;;21.30;99.90;;;;;;6306711;22;20023;-49
2023/09/29 09:17:07;;;;;;;5.68;2.90;;;21.20;99.90;;;;;;6307458;22;20011;-49
2023/09/29 09:19:45;;;;;;;5.63;2.95;;;21.20;99.90;;;;;;6279484;22;20026;-50
2023/09/29 09:22:22;;;;;;;;;;;21.30;99.90;;;;;;6279246;22;20439;-50
2023/09/29 09:24:56;;;;;;;5.68;2.97;;;21.30;99.90;;;;;;6279441;22;19960;-51
2023/09/29 09:27:22;;;;;;;4.90;3.30;;;21.60;99.90;;;;;;6279360;22;20015;-51
2023/09/29 09:29:47;;;;;;;4.63;2.88;;;21.60;99.90;;;;;;6306548;22;20106;-49
2023/09/29 09:32:14;;;;;;;5.75;2.65;;;21.80;99.90;;;;;;6307051;22;20019;-52
2023/09/29 09:34:42;;;;;;;4.78;3.30;;;;;;;;;;6306119;22;20061;-49
2023/09/29 09:37:08;;;;;;;;;;;;;;;;;;6306927;22;20011;-51
2023/09/29 09:39:34;;;;;;;6.17;3.70;;;22.00;99.90;;;;;;6306945;22;19972;-50
2023/09/29 09:42:06;;;;;;;4.65;3.03;;;22.20;99.90;;;;;;6306964;22;20287;-50
2023/09/29 09:44:34;;;;;;;5.53;3.20;;;22.30;99.90;;;;;;6278984;22;20080;-51
2023/09/29 09:47:10;;;;;;;4.20;3.00;;;22.50;99.90;;;;;;6307622;22;20018;-49
2023/09/29 09:49:51;;;;;;;4.67;3.10;;;22.50;99.90;;;;;;6308761;22;20019;-49
2023/09/29 09:52:26;;;;;;;5.13;2.85;;;22.40;99.90;;;;;;6306574;22;20011;-52
2023/09/29 09:55:02;;;;;;;6.13;2.70;;;22.50;99.90;;;;;;6306641;22;20129;-49
2023/09/29 09:57:35;;;;;;;5.13;2.53;;;22.60;99.90;;;;;;6305999;22;20470;-49
2023/09/29 10:00:07;;;;;;;4.97;2.92;;;22.50;99.90;;;;;;6305993;22;20022;-51
2023/09/29 10:02:38;;;;;;;3.53;2.40;;;22.40;99.90;;;;;;6305897;22;20015;-51
2023/09/29 10:05:22;;;;;;;3.45;2.33;;;22.30;99.90;;;;;;6305757;22;20031;-51
2023/09/29 10:07:49;;;;;;;2.97;2.17;;;22.30;99.90;;;;;;6305998;22;20090;-50
2023/09/29 10:10:24;;;;;;;4.88;2.42;;;22.20;99.90;;;;;;6306276;22;20463;-50
2023/09/29 10:12:56;;;;;;;5.20;2.45;;;22.20;99.90;;;;;;6306167;22;20019;-50
2023/09/29 10:15:22;;;;;;;4.85;2.63;;;22.20;99.90;;;;;;6305984;22;20015;-52
2023/09/29 10:17:49;;;;;;;5.32;2.80;;;22.20;99.90;;;;;;6305999;22;20007;-51
2023/09/29 10:20:19;;;;;;;4.22;2.53;;;22.20;99.90;;;;;;6305824;22;20011;-51
2023/09/29 10:22:46;;;;;;;6.07;2.72;;;22.40;99.90;;;;;;6305886;22;20015;-49
2023/09/29 10:25:19;;;;;;;4.78;2.70;;;22.50;99.90;;;;;;6305649;22;20069;-52
2023/09/29 10:27:49;;;;;;;5.35;2.65;;;22.50;99.90;;;;;;6305405;22;20384;-52
2023/09/29 10:30:18;;;;;;;6.45;2.50;;;22.40;99.90;;;;;;6305403;22;20124;-52
2023/09/29 10:32:48;;;;;;;4.75;2.80;;;22.30;99.90;;;;;;6305876;22;20065;-52
2023/09/29 10:35:19;;;;;;;3.92;2.63;;;22.20;99.90;;;;;;6305390;22;20063;-49
2023/09/29 10:37:58;;;;;;;3.40;2.70;;;22.10;99.90;;;;;;6278839;22;20023;-49
2023/09/29 10:40:31;;;;;;;5.95;2.60;;;22.00;99.90;;;;;;6305929;22;20007;-49
2023/09/29 10:43:01;;;;;;;4.28;2.83;;;;;;;;;;6306291;22;20017;-52
2023/09/29 10:45:39;;;;;;;7.60;3.15;;;22.10;99.90;;;;;;6307341;22;20023;-49
2023/09/29 10:48:06;;;;;;;;;;;22.00;99.90;;;;;;6282305;22;20026;-49
2023/09/29 10:50:45;;;;;;;;;;;21.90;99.90;;;;;;6308834;22;19915;-49
2023/09/29 10:53:11;;;;;;;7.32;2.97;;;22.00;99.90;;;;;;6307212;22;19922;-50
2023/09/29 10:55:54;;;;;;;4.43;2.70;;;22.10;99.90;;;;;;6307850;22;20378;-51
2023/09/29 10:58:21;;;;;;;4.40;2.92;;;22.00;99.90;;;;;;6307751;22;20012;-49
2023/09/29 11:00:48;;;;;;;5.22;2.75;;;21.90;99.90;;;;;;6307860;22;20321;-51
2023/09/29 11:03:20;;;;;;;4.35;3.03;;;21.90;99.90;;;;;;6307779;22;20023;-50
2023/09/29 11:05:48;;;;;;;6.90;2.78;;;22.00;99.90;;;;;;6308156;22;20049;-49
2023/09/29 11:08:17;;;;;;;3.42;2.80;;;22.10;99.90;;;;;;6307549;22;20072;-51
2023/09/29 11:10:56;;;;;;;3.25;2.65;;;22.10;99.90;;;;;;6307831;22;20015;-49
2023/09/29 11:13:22;;;;;;;3.95;2.53;;;22.30;99.90;;;;;;6307539;22;20042;-50
2023/09/29 11:15:49;;;;;;;4.75;3.30;;;22.40;99.90;;;;;;6307922;22;20025;-49
2023/09/29 11:18:25;;;;;;;6.18;3.05;;;;;;;;;;6308485;22;20023;-49
2023/09/29 11:20:54;;;;;;;6.00;3.42;;;;;;;;;;6307799;22;20023;-49
2023/09/29 11:23:20;;;;;;;6.82;3.25;;;;;;;;;;6279608;22;20019;-49
2023/09/29 11:25:51;;;;;;;7.80;3.50;;;22.40;99.90;;;;;;6306323;22;20094;-50
2023/09/29 11:28:18;;;;;;;6.07;2.47;;;22.50;99.90;;;;;;6304859;22;20019;-53
2023/09/29 11:30:44;;;;;;;8.23;3.03;;;22.40;99.90;;;;;;6307470;22;20054;-51
2023/09/29 11:33:14;;;;;;;6.50;3.20;;;22.40;99.90;;;;;;6307356;22;20016;-51
2023/09/29 11:35:45;;;;;;;6.35;2.80;;;22.40;99.90;;;;;;6277332;22;20023;-95
2023/09/29 11:38:20;;;;;;;8.52;3.22;;;22.30;99.90;;;;;;6248248;22;20023;-91
2023/09/29 11:40:50;;;;;;;5.50;3.00;;;22.40;99.90;;;;;;6223585;22;20016;-93
2023/09/29 11:43:22;;;;;;;4.97;3.25;;;22.40;99.90;;;;;;6222443;22;20020;-95
2023/09/29 11:45:48;;;;;;;5.00;3.00;;;22.50;99.90;;;;;;6224441;22;20012;-90
2023/09/29 11:48:14;;;;;;;5.13;3.22;;;22.10;99.90;;;;;;6242346;22;20091;-93
2023/09/29 11:50:40;;;;;;;6.35;3.33;;;21.90;99.90;;;;;;6219156;22;20356;-96
2023/09/29 11:53:07;;;;;;;5.32;3.03;;;22.00;99.90;;;;;;6224304;22;20460;-92
2023/09/29 11:55:36;;;;;;;5.28;3.15;;;22.00;99.90;;;;;;6221234;22;20267;-92
2023/09/29 11:58:03;;;;;;;8.18;3.25;;;22.10;99.90;;;;;;6225866;22;20008;-94
2023/09/29 12:00:29;;;;;;;4.20;3.80;;;22.20;99.90;;;;;;6253755;22;20065;-94
2023/09/29 12:02:55;;;;;;;4.47;3.15;;;22.30;99.90;;;;;;6228565;22;20029;-96
2023/09/29 12:05:23;;;;;;;6.88;3.50;;;22.60;99.90;;;;;;6224763;22;20016;-95
2023/09/29 12:07:50;;;;;;;5.15;3.10;;;22.40;99.90;;;;;;6224520;22;20058;-93
2023/09/29 12:10:15;;;;;;;7.93;3.30;;;22.40;99.90;;;;;;6249367;22;20020;-92
2023/09/29 12:12:41;;;;;;;5.50;3.40;;;22.30;99.90;;;;;;6222004;22;20137;-90
2023/09/29 12:15:11;;;;;;;4.68;3.00;;;22.30;99.90;;;;;;6222414;22;20327;-95
2023/09/29 12:17:38;;;;;;;4.82;3.13;;;22.50;99.90;;;;;;6222262;22;20008;-95
2023/09/29 12:20:08;;;;;;;4.45;3.13;;;22.30;99.90;;;;;;6222786;22;20023;-95
2023/09/29 12:22:34;;;;;;;4.90;2.65;;;22.40;99.90;;;;;;6228654;22;20018;-95
2023/09/29 12:25:00;;;;;;;5.22;2.97;;;22.40;99.90;;;;;;6231785;22;20047;-95
2023/09/29 12:27:26;;;;;;;6.38;2.70;;;22.20;99.90;;;;;;6236303;22;20041;-95
2023/09/29 12:29:54;;;;;;;3.72;2.50;;;22.20;99.90;;;;;;6228338;22;20074;-96
2023/09/29 12:32:21;;;;;;;6.13;2.50;;;;;;;;;;6221879;22;20022;-95
2023/09/29 12:34:47;;;;;;;3.40;2.20;;;;;;;;;;6230143;22;20046;-94
2023/09/29 12:37:13;;;;;;;3.63;2.50;;;22.40;99.90;;;;;;6222930;22;20050;-95
2023/09/29 12:39:39;;;;;;;4.50;2.50;;;21.90;99.90;;;;;;6235316;22;20200;-95
2023/09/29 12:42:08;;;;;;;4.15;2.40;;;21.80;99.90;;;;;;6221673;22;20008;-94
2023/09/29 12:44:34;;;;;;;5.35;2.45;;;21.70;99.90;;;;;;6221270;22;20417;-94
2023/09/29 12:47:00;;;;;;;5.00;2.60;;;21.60;99.90;;;;;;6220936;22;20058;-93
2023/09/29 12:49:26;;;;;;;6.70;2.65;;;21.50;99.90;;;;;;6219709;22;20008;-93